Time;durP1;ratioP1;P1;durP2;ratioP2;P2;SDS_P1;SDS_P2;PMS_P1;PMS_P2;Temp;Humidity;BMP_temperature;BMP_pressure;BME280_temperature;BME280_humidity;BME280_pressure;Samples;Min_cycle;Max_cycle;Signal;HPM_P1;HPM_P2
2023/04/27 00:00:26;;;;;;;12.35;6.88;;;;;;;4.25;100.00;102213.19;5030301;28;20040;-62
2023/04/27 00:02:52;;;;;;;17.88;6.90;;;;;;;4.24;100.00;102221.03;5027639;28;20021;-62
2023/04/27 00:05:17;;;;;;;9.25;6.68;;;;;;;4.22;100.00;102221.00;5029923;28;20477;-62
2023/04/27 00:07:43;;;;;;;8.70;6.70;;;;;;;4.21;100.00;102219.22;5030270;28;20061;-63
2023/04/27 00:10:08;;;;;;;11.27;6.88;;;;;;;4.21;100.00;102224.44;5029334;28;20067;-63
2023/04/27 00:12:34;;;;;;;10.93;6.97;;;;;;;4.20;100.00;102217.50;5029331;28;20037;-62
2023/04/27 00:14:59;;;;;;;9.80;7.47;;;;;;;4.17;100.00;102217.44;5029879;28;20033;-64
2023/04/27 00:17:25;;;;;;;10.20;6.50;;;;;;;4.17;100.00;102225.25;5028455;28;20019;-64
2023/04/27 00:19:51;;;;;;;10.52;6.88;;;;;;;4.15;100.00;102216.53;5047539;28;20064;-63
2023/04/27 00:22:16;;;;;;;15.35;7.00;;;;;;;4.13;100.00;102213.88;5048819;28;20040;-63
2023/04/27 00:24:41;;;;;;;9.32;6.75;;;;;;;4.13;100.00;102213.03;5049603;28;20032;-64
2023/04/27 00:27:07;;;;;;;8.95;6.35;;;;;;;4.10;100.00;102216.47;5049098;28;20093;-62
2023/04/27 00:29:33;;;;;;;12.20;7.15;;;;;;;4.09;100.00;102213.84;5048142;28;20025;-60
2023/04/27 00:31:58;;;;;;;12.77;7.05;;;;;;;4.03;100.00;102210.28;5048525;28;20056;-63
2023/04/27 00:34:23;;;;;;;11.90;7.40;;;;;;;4.01;100.00;102205.91;5049273;28;20387;-63
2023/04/27 00:36:49;;;;;;;12.88;7.28;;;;;;;3.99;100.00;102208.47;5049200;28;20431;-62
2023/04/27 00:39:14;;;;;;;13.63;6.95;;;;;;;3.99;100.00;102199.75;5049593;28;20020;-61
2023/04/27 00:41:39;;;;;;;9.85;6.88;;;;;;;3.98;100.00;102196.31;5034901;28;20074;-61
2023/04/27 00:44:05;;;;;;;15.77;7.40;;;;;;;4.01;100.00;102198.94;5028564;28;20539;-61
2023/04/27 00:46:35;;;;;;;16.88;7.68;;;;;;;4.04;100.00;102198.97;5027604;28;20034;-63
2023/04/27 00:49:00;;;;;;;13.10;7.30;;;;;;;4.03;100.00;102189.41;5028911;28;20025;-63
2023/04/27 00:51:29;;;;;;;12.13;7.25;;;;;;;4.01;100.00;102185.88;5045111;28;20120;-62
2023/04/27 00:53:56;;;;;;;12.13;7.90;;;;;;;3.98;100.00;102190.19;5027415;28;20032;-64
2023/04/27 00:56:21;;;;;;;11.93;7.18;;;;;;;3.91;100.00;102189.22;5029124;28;20025;-60
2023/04/27 00:58:47;;;;;;;13.23;7.38;;;;;;;3.88;100.00;102200.47;5028359;28;20028;-63
2023/04/27 01:01:12;;;;;;;15.45;8.10;;;;;;;3.85;100.00;102195.22;5035301;28;20056;-63
2023/04/27 01:03:38;;;;;;;11.02;7.25;;;;;;;3.83;100.00;102194.31;5048782;28;20033;-63
2023/04/27 01:06:03;;;;;;;15.45;7.95;;;;;;;3.82;100.00;102195.16;5038419;28;20025;-62
2023/04/27 01:08:28;;;;;;;16.65;8.38;;;;;;;3.81;100.00;102200.34;5048255;28;20115;-62
2023/04/27 01:10:54;;;;;;;12.70;7.80;;;;;;;3.80;100.00;102202.09;5035799;28;20041;-62
2023/04/27 01:13:20;;;;;;;18.45;8.20;;;;;;;3.81;100.00;102192.53;5027658;28;20829;-62
2023/04/27 01:15:45;;;;;;;12.23;7.60;;;;;;;3.79;100.00;102190.78;5028933;28;20025;-62
2023/04/27 01:18:11;;;;;;;17.00;8.27;;;;;;;3.76;100.00;102189.84;5030802;28;20510;-62
2023/04/27 01:20:37;;;;;;;13.25;8.05;;;;;;;3.72;100.00;102185.44;5047259;28;20039;-62
2023/04/27 01:23:02;;;;;;;20.50;8.07;;;;;;;3.76;100.00;102187.22;5048075;28;20112;-62
2023/04/27 01:25:28;;;;;;;12.48;8.05;;;;;;;3.73;100.00;102185.47;5048357;28;20051;-61
2023/04/27 01:27:53;;;;;;;16.35;7.55;;;;;;;3.71;100.00;102186.28;5047578;28;20033;-62
2023/04/27 01:30:19;;;;;;;15.20;8.48;;;;;;;3.67;100.00;102182.75;5047668;28;20370;-61
2023/04/27 01:32:44;;;;;;;16.30;8.40;;;;;;;3.67;100.00;102177.53;5036068;28;20036;-61
2023/04/27 01:35:10;;;;;;;18.00;10.35;;;;;;;3.73;100.00;102177.63;5047683;28;20036;-62
2023/04/27 01:37:35;;;;;;;14.57;9.70;;;;;;;3.79;100.00;102172.53;5047684;28;20021;-62
2023/04/27 01:40:01;;;;;;;17.65;8.90;;;;;;;3.83;100.00;102169.97;5047440;28;20025;-61
2023/04/27 01:42:27;;;;;;;14.18;9.32;;;;;;;3.73;100.00;102167.22;5047992;28;20590;-61
2023/04/27 01:44:53;;;;;;;19.70;9.98;;;;;;;3.72;100.00;102172.41;5047823;28;20029;-61
2023/04/27 01:47:18;;;;;;;14.93;8.63;;;;;;;3.73;100.00;102174.16;5047658;28;20025;-63
2023/04/27 01:49:43;;;;;;;16.45;8.38;;;;;;;3.76;100.00;102167.25;5047855;28;20029;-62
2023/04/27 01:52:09;;;;;;;19.90;8.10;;;;;;;3.76;100.00;102167.25;5040017;28;20025;-62
2023/04/27 01:54:35;;;;;;;15.52;8.00;;;;;;;3.74;100.00;102166.38;5028127;28;20025;-62
2023/04/27 01:57:00;;;;;;;15.95;8.10;;;;;;;3.79;100.00;102167.31;5044237;28;20117;-64
2023/04/27 01:59:26;;;;;;;12.07;7.53;;;;;;;3.78;100.00;102172.50;5046968;28;20116;-63
2023/04/27 02:01:52;;;;;;;12.15;7.47;;;;;;;3.73;100.00;102171.56;5048184;28;20036;-61
2023/04/27 02:04:17;;;;;;;15.40;7.97;;;;;;;3.83;100.00;102177.78;5047441;28;20029;-62
2023/04/27 02:06:42;;;;;;;13.07;7.90;;;;;;;3.85;100.00;102173.50;5047984;28;20070;-61
2023/04/27 02:09:08;;;;;;;14.95;7.70;;;;;;;3.77;100.00;102163.78;5046407;28;20055;-61
2023/04/27 02:11:33;;;;;;;12.20;7.30;;;;;;;3.75;100.00;102162.03;5037346;28;20032;-63
2023/04/27 02:13:59;;;;;;;14.43;6.75;;;;;;;3.72;100.00;102161.97;5026296;28;20064;-63
2023/04/27 02:16:25;;;;;;;11.07;7.35;;;;;;;3.73;100.00;102162.00;5034998;28;20024;-62
2023/04/27 02:18:52;;;;;;;12.43;7.07;;;;;;;3.70;100.00;102153.25;5047025;28;20029;-60
2023/04/27 02:21:17;;;;;;;18.48;7.22;;;;;;;3.76;100.00;102151.63;5045366;28;20463;-63
2023/04/27 02:23:43;;;;;;;10.98;7.05;;;;;;;3.82;100.00;102150.81;5047529;28;20063;-63
2023/04/27 02:26:16;;;;;;;13.38;7.20;;;;;;;3.85;100.00;102152.63;5047306;28;20017;-60
2023/04/27 02:28:41;;;;;;;13.50;8.00;;;;;;;3.87;100.00;102150.91;5046669;28;20396;-63
2023/04/27 02:31:07;;;;;;;11.15;6.50;;;;;;;3.89;100.00;102155.28;5045411;28;20033;-62
2023/04/27 02:33:32;;;;;;;12.73;6.78;;;;;;;3.87;100.00;102156.13;5048029;28;20387;-61
2023/04/27 02:35:57;;;;;;;11.10;6.90;;;;;;;3.88;100.00;102150.03;5042242;28;20095;-61
2023/04/27 02:38:23;;;;;;;10.05;6.30;;;;;;;3.86;100.00;102138.72;5027515;28;20064;-63
2023/04/27 02:40:53;;;;;;;13.95;7.57;;;;;;;3.84;100.00;102146.53;5026571;28;20025;-64
2023/04/27 02:43:19;;;;;;;15.70;7.10;;;;;;;3.97;100.00;102152.78;5026474;28;20456;-61
2023/04/27 02:45:44;;;;;;;16.98;6.97;;;;;;;3.99;100.00;102137.16;5027133;28;20037;-61
2023/04/27 02:48:09;;;;;;;13.98;7.22;;;;;;;3.96;100.00;102137.13;5027367;28;20049;-62
2023/04/27 02:50:40;;;;;;;18.65;7.43;;;;;;;3.90;100.00;102146.63;5027604;28;20114;-61
2023/04/27 02:53:05;;;;;;;18.73;6.82;;;;;;;3.90;100.00;102145.72;5027097;28;20022;-61
2023/04/27 02:55:30;;;;;;;11.43;6.00;;;;;;;3.87;100.00;102150.91;5026889;28;20552;-64
2023/04/27 02:57:56;;;;;;;12.13;6.32;;;;;;;3.95;100.00;102154.53;5046856;28;20464;-63
2023/04/27 03:00:21;;;;;;;10.00;6.15;;;;;;;4.00;100.00;102154.59;5046315;28;20036;-64
2023/04/27 03:02:47;;;;;;;8.13;5.65;;;;;;;4.09;100.00;102152.09;5045113;28;20021;-63
2023/04/27 03:05:12;;;;;;;13.30;6.18;;;;;;;4.02;100.00;102161.56;5047070;28;20024;-61
2023/04/27 03:07:37;;;;;;;12.32;5.57;;;;;;;4.04;100.00;102165.06;5046830;28;20025;-61
2023/04/27 03:10:03;;;;;;;11.45;5.72;;;;;;;4.04;100.00;102154.63;5046482;28;20045;-61
2023/04/27 03:12:29;;;;;;;9.25;5.45;;;;;;;4.02;100.00;102158.09;5046944;28;20033;-62
2023/04/27 03:14:54;;;;;;;7.78;5.75;;;;;;;4.00;100.00;102159.81;5046724;28;20509;-65
2023/04/27 03:17:20;;;;;;;8.43;5.88;;;;;;;3.91;100.00;102158.81;5045390;28;20770;-61
2023/04/27 03:19:47;;;;;;;8.68;5.78;;;;;;;3.91;100.00;102158.81;5046070;28;20033;-63
2023/04/27 03:22:12;;;;;;;21.10;7.57;;;;;;;3.81;100.00;102156.00;5046691;28;20021;-59
2023/04/27 03:24:38;;;;;;;9.98;5.50;;;;;;;3.71;100.00;102161.09;5045953;28;20033;-63
2023/04/27 03:27:03;;;;;;;11.48;5.57;;;;;;;3.63;100.00;102166.19;5045220;28;20032;-62
2023/04/27 03:29:29;;;;;;;14.68;6.25;;;;;;;3.59;100.00;102166.09;5045734;28;20053;-63
2023/04/27 03:31:54;;;;;;;8.82;6.22;;;;;;;3.66;100.00;102166.25;5048099;28;20048;-61
2023/04/27 03:34:20;;;;;;;11.15;6.32;;;;;;;3.65;100.00;102158.41;5050397;28;20083;-61
2023/04/27 03:36:45;;;;;;;11.45;6.35;;;;;;;3.60;100.00;102155.72;5049205;28;20086;-61
2023/04/27 03:39:11;;;;;;;14.68;6.30;;;;;;;3.62;100.00;102155.75;5050572;28;20025;-62
2023/04/27 03:41:36;;;;;;;12.95;6.28;;;;;;;3.60;100.00;102160.03;5048341;28;20544;-62
2023/04/27 03:44:02;;;;;;;10.68;6.07;;;;;;;3.59;100.00;102160.91;5049451;28;20040;-59
2023/04/27 03:46:27;;;;;;;9.93;5.70;;;;;;;3.60;100.00;102157.44;5050300;28;20017;-61
2023/04/27 03:48:53;;;;;;;12.13;5.97;;;;;;;3.63;100.00;102166.19;5049731;28;20063;-62
2023/04/27 03:51:18;;;;;;;9.32;5.93;;;;;;;3.64;100.00;102165.31;5031246;28;20022;-64
2023/04/27 03:53:43;;;;;;;9.90;5.82;;;;;;;3.69;100.00;102167.13;5030105;28;20492;-61
2023/04/27 03:56:09;;;;;;;12.32;6.25;;;;;;;3.68;100.00;102174.09;5030058;28;20109;-63
2023/04/27 03:58:34;;;;;;;11.93;5.97;;;;;;;3.60;100.00;102168.75;5029787;28;20040;-62
2023/04/27 04:01:00;;;;;;;12.10;5.72;;;;;;;3.52;100.00;102179.03;5030601;28;20480;-62
2023/04/27 04:03:25;;;;;;;12.88;6.68;;;;;;;3.48;100.00;102172.03;5028850;28;20030;-61
2023/04/27 04:05:51;;;;;;;9.48;5.65;;;;;;;3.46;100.00;102175.47;5041371;28;20057;-63
2023/04/27 04:08:16;;;;;;;8.93;5.47;;;;;;;3.44;100.00;102183.25;5049781;28;20536;-61
2023/04/27 04:10:41;;;;;;;10.95;5.75;;;;;;;3.52;100.00;102175.53;5049591;28;20041;-61
2023/04/27 04:13:07;;;;;;;9.57;6.00;;;;;;;3.56;100.00;102187.78;5032424;28;20555;-61
2023/04/27 04:15:32;;;;;;;15.88;6.20;;;;;;;3.54;100.00;102187.78;5024484;28;20434;-64
2023/04/27 04:17:58;;;;;;;10.00;6.20;;;;;;;3.60;100.00;102191.31;5029142;28;20032;-63
2023/04/27 04:20:23;;;;;;;13.23;5.68;;;;;;;3.62;100.00;102190.50;5029753;28;20711;-61
2023/04/27 04:22:48;;;;;;;11.77;5.40;;;;;;;3.64;100.00;102188.78;5033067;28;20476;-65
2023/04/27 04:25:14;;;;;;;8.55;4.95;;;;;;;3.69;100.00;102199.31;5021901;28;20025;-61
2023/04/27 04:27:39;;;;;;;14.98;5.63;;;;;;;3.71;100.00;102200.22;5028954;28;20040;-62
2023/04/27 04:30:06;;;;;;;9.10;5.20;;;;;;;3.70;100.00;102200.19;5019279;28;20029;-61
2023/04/27 04:32:32;;;;;;;7.10;4.75;;;;;;;3.74;100.00;102192.44;5009653;28;20112;-62
2023/04/27 04:35:00;;;;;;;7.88;4.75;;;;;;;3.76;100.00;102193.34;5022821;28;20480;-61
2023/04/27 04:37:25;;;;;;;9.77;4.63;;;;;;;3.83;100.00;102194.31;5016571;28;20519;-61
2023/04/27 04:39:51;;;;;;;8.07;4.60;;;;;;;3.87;100.00;102197.84;5028685;28;20117;-62
2023/04/27 04:42:16;;;;;;;11.85;5.38;;;;;;;3.88;100.00;102199.59;5027577;28;20021;-63
2023/04/27 04:44:41;;;;;;;13.00;4.88;;;;;;;3.91;100.00;102204.84;5026149;28;20025;-64
2023/04/27 04:47:08;;;;;;;9.85;4.95;;;;;;;3.87;100.00;102205.66;5028236;28;20033;-61
2023/04/27 04:49:34;;;;;;;12.95;5.03;;;;;;;3.91;100.00;102207.47;5027512;28;20028;-61
2023/04/27 04:51:59;;;;;;;9.07;5.10;;;;;;;3.89;100.00;102201.38;5027528;28;20108;-62
2023/04/27 04:54:25;;;;;;;12.15;5.00;;;;;;;3.98;100.00;102196.31;5013809;28;20017;-61
2023/04/27 04:56:50;;;;;;;10.93;5.43;;;;;;;4.04;100.00;102206.81;5026365;28;20267;-60
2023/04/27 04:59:16;;;;;;;10.02;5.03;;;;;;;4.07;100.00;102194.66;5037688;28;20041;-61
2023/04/27 05:01:41;;;;;;;7.45;5.18;;;;;;;4.11;100.00;102199.06;5018477;28;20025;-62
2023/04/27 05:04:07;;;;;;;11.98;5.00;;;;;;;4.10;100.00;102194.72;5006130;28;20476;-62
2023/04/27 05:06:32;;;;;;;11.65;6.20;;;;;;;4.21;100.00;102198.34;5007011;28;20498;-61
2023/04/27 05:08:58;;;;;;;7.10;4.78;;;;;;;4.36;100.00;102197.69;5017467;28;20073;-61
2023/04/27 05:11:23;;;;;;;9.25;4.53;;;;;;;4.39;100.00;102197.75;5027257;28;20022;-62
2023/04/27 05:13:48;;;;;;;9.32;4.60;;;;;;;4.41;100.00;102203.00;5018127;28;20022;-61
2023/04/27 05:16:14;;;;;;;8.48;4.93;;;;;;;4.41;100.00;102209.09;5016162;28;20075;-61
2023/04/27 05:18:40;;;;;;;6.43;4.60;;;;;;;4.48;100.00;102210.03;5018729;28;20036;-62
2023/04/27 05:21:12;;;;;;;8.93;5.40;;;;;;;4.45;100.00;102215.22;5007881;28;20072;-63
2023/04/27 05:23:38;;;;;;;8.30;4.55;;;;;;;4.46;100.00;102217.00;5017050;28;20034;-63
2023/04/27 05:26:11;;;;;;;10.35;5.28;;;;;;;4.47;100.00;102210.91;4999788;28;20479;-63
2023/04/27 05:28:36;;;;;;;8.32;4.18;;;;;;;4.64;100.00;102212.88;5015599;28;20026;-62
2023/04/27 05:31:01;;;;;;;12.90;5.60;;;;;;;4.68;100.00;102218.16;5007706;28;20079;-64
2023/04/27 05:33:27;;;;;;;10.95;4.45;;;;;;;4.60;100.00;102211.09;4990560;28;20033;-61
2023/04/27 05:35:52;;;;;;;10.32;4.63;;;;;;;4.69;100.00;102216.41;5013540;28;20063;-62
2023/04/27 05:38:17;;;;;;;10.05;4.90;;;;;;;4.69;100.00;102221.63;5015766;28;20026;-61
2023/04/27 05:40:42;;;;;;;9.65;4.88;;;;;;;4.89;100.00;102207.94;5009009;28;20065;-61
2023/04/27 05:43:08;;;;;;;8.50;4.28;;;;;;;5.01;100.00;102215.94;5012623;28;20029;-64
2023/04/27 05:45:38;;;;;;;9.90;5.00;;;;;;;5.05;100.00;102212.50;5018420;28;20029;-61
2023/04/27 05:48:03;;;;;;;8.55;4.80;;;;;;;5.16;100.00;102219.59;5015417;28;20443;-61
2023/04/27 05:50:28;;;;;;;10.20;4.25;;;;;;;5.22;100.00;102217.03;5007686;28;20473;-62
2023/04/27 05:52:54;;;;;;;10.00;4.60;;;;;;;5.27;100.00;102220.56;5007664;28;20053;-62
2023/04/27 05:55:19;;;;;;;9.63;4.65;;;;;;;5.37;100.00;102221.56;5005697;28;20573;-61
2023/04/27 05:57:45;;;;;;;11.20;4.35;;;;;;;5.43;100.00;102218.13;5006639;28;20022;-63
2023/04/27 06:00:11;;;;;;;6.97;4.60;;;;;;;5.53;100.00;102219.06;5007329;28;20026;-64
2023/04/27 06:02:36;;;;;;;16.48;5.35;;;;;;;5.52;100.00;102226.06;5018252;28;20048;-62
2023/04/27 06:05:02;;;;;;;9.48;5.03;;;;;;;5.51;100.00;102219.06;5046336;28;20021;-62
2023/04/27 06:07:28;;;;;;;10.48;6.13;;;;;;;5.47;100.00;102235.59;5046821;28;20032;-64
2023/04/27 06:09:53;;;;;;;7.72;5.13;;;;;;;5.51;100.00;102232.13;5045754;28;20562;-63
2023/04/27 06:12:18;;;;;;;12.38;5.85;;;;;;;5.67;100.00;102229.69;5025893;28;20029;-62
2023/04/27 06:14:44;;;;;;;13.32;6.00;;;;;;;5.66;100.00;102228.78;5025434;28;20029;-64
2023/04/27 06:17:09;;;;;;;9.05;5.70;;;;;;;5.79;100.00;102229.78;5024883;28;20041;-62
2023/04/27 06:19:35;;;;;;;10.15;5.82;;;;;;;5.85;100.00;102226.34;5023305;28;20021;-61
2023/04/27 06:22:02;;;;;;;10.10;5.70;;;;;;;5.94;100.00;102229.00;5015716;28;20064;-63
2023/04/27 06:24:27;;;;;;;10.85;6.50;;;;;;;6.12;100.00;102227.47;5017962;28;20116;-61
2023/04/27 06:26:53;;;;;;;12.60;5.78;;;;;;;6.17;100.00;102230.97;5021392;28;20171;-62
2023/04/27 06:29:18;;;;;;;10.27;5.30;;;;;;;6.27;100.00;102226.69;5024907;28;20037;-60
2023/04/27 06:31:44;;;;;;;15.63;5.45;;;;;;;6.36;100.00;102235.47;5038264;28;20018;-61
2023/04/27 06:34:09;;;;;;;16.20;5.10;;;;;;;6.41;100.00;102229.38;5018953;28;20033;-64
2023/04/27 06:36:35;;;;;;;7.38;4.50;;;;;;;6.51;100.00;102221.56;5017251;28;20424;-62
2023/04/27 06:39:00;;;;;;;11.13;5.55;;;;;;;6.61;100.00;102217.25;5018120;28;20021;-64
2023/04/27 06:41:26;;;;;;;8.90;5.22;;;;;;;6.77;100.00;102221.69;5020432;28;20032;-62
2023/04/27 06:43:52;;;;;;;10.10;4.75;;;;;;;6.90;100.00;102212.16;5018731;28;20472;-62
2023/04/27 06:46:18;;;;;;;7.63;4.70;;;;;;;7.00;100.00;102215.69;5013655;28;20033;-63
2023/04/27 06:48:43;;;;;;;10.60;4.20;;;;;;;6.87;100.00;102221.75;5025116;28;20033;-62
2023/04/27 06:51:09;;;;;;;7.78;4.40;;;;;;;7.05;100.00;102221.78;5017721;28;20395;-63
2023/04/27 06:53:35;;;;;;;10.35;4.47;;;;;;;7.11;100.00;102214.84;5018026;28;20025;-61
2023/04/27 06:56:00;;;;;;;10.68;4.30;;;;;;;7.07;100.00;102217.44;5010679;28;20032;-63
2023/04/27 06:58:26;;;;;;;7.82;4.10;;;;;;;7.04;100.00;102214.81;5005658;28;20022;-61
2023/04/27 07:00:52;;;;;;;10.23;4.45;;;;;;;7.25;100.00;102228.84;5006189;28;20404;-63
2023/04/27 07:03:17;;;;;;;9.63;4.35;;;;;;;7.28;100.00;102226.22;5005291;28;20117;-64
2023/04/27 07:05:43;;;;;;;11.15;4.15;;;;;;;7.17;98.97;102227.97;5032489;28;20117;-62
2023/04/27 07:08:08;;;;;;;9.68;3.95;;;;;;;7.00;99.41;102223.53;5013238;28;20018;-62
2023/04/27 07:10:33;;;;;;;10.00;3.90;;;;;;;7.32;99.94;102225.38;5013613;28;20042;-63
2023/04/27 07:12:59;;;;;;;11.32;3.72;;;;;;;7.57;98.96;102214.94;5015778;28;20017;-63
2023/04/27 07:15:24;;;;;;;7.05;3.83;;;;;;;7.75;98.67;102218.44;5014981;28;20025;-63
2023/04/27 07:17:52;;;;;;;11.23;4.13;;;;;;;8.04;98.42;102214.06;5016746;28;20025;-64
2023/04/27 07:20:18;;;;;;;8.25;4.40;;;;;;;8.05;97.99;102213.16;5017941;28;20022;-65
2023/04/27 07:22:44;;;;;;;9.95;3.63;;;;;;;8.19;96.89;102216.63;5015351;28;20060;-61
2023/04/27 07:25:10;;;;;;;11.55;3.53;;;;;;;8.36;97.33;102215.72;5014303;28;20042;-63
2023/04/27 07:27:35;;;;;;;8.40;4.18;;;;;;;8.53;96.05;102218.31;5016501;28;20024;-64
2023/04/27 07:30:01;;;;;;;6.68;3.45;;;;;;;8.66;94.22;102218.28;5016659;28;20025;-62
2023/04/27 07:32:26;;;;;;;6.85;3.45;;;;;;;8.53;92.69;102218.31;5017447;28;20420;-63
2023/04/27 07:34:54;;;;;;;7.30;3.35;;;;;;;8.49;93.13;102216.56;5025672;28;20423;-63
2023/04/27 07:37:20;;;;;;;7.80;3.20;;;;;;;8.63;92.01;102223.56;5009853;28;20394;-62
2023/04/27 07:39:47;;;;;;;8.98;3.80;;;;;;;8.68;91.92;102224.44;5012021;28;20029;-62
2023/04/27 07:42:12;;;;;;;7.60;3.10;;;;;;;8.65;91.77;102221.81;5011792;28;20282;-62
2023/04/27 07:44:38;;;;;;;5.28;3.25;;;;;;;8.85;91.63;102221.72;5016791;28;20148;-63
2023/04/27 07:47:04;;;;;;;4.45;3.15;;;;;;;8.82;92.07;102229.66;5019971;28;20017;-62
2023/04/27 07:49:29;;;;;;;9.07;3.47;;;;;;;8.91;93.01;102219.06;5030251;28;20032;-63
2023/04/27 07:51:55;;;;;;;4.25;3.33;;;;;;;8.90;93.99;102221.69;5045820;28;20032;-65
2023/04/27 07:54:20;;;;;;;9.77;3.60;;;;;;;9.03;92.55;102218.13;5046681;28;20039;-64
2023/04/27 07:56:46;;;;;;;7.85;3.72;;;;;;;9.34;91.73;102210.06;5044580;28;20083;-63
2023/04/27 07:59:13;;;;;;;10.55;3.53;;;;;;;9.50;91.62;102214.34;5046489;28;20441;-63
2023/04/27 08:01:38;;;;;;;11.20;3.38;;;;;;;9.59;91.34;102217.78;5045658;28;20376;-62
2023/04/27 08:04:04;;;;;;;5.15;3.15;;;;;;;9.62;91.01;102230.06;5045462;28;20021;-62
2023/04/27 08:06:29;;;;;;;8.20;3.13;;;;;;;9.44;90.61;102220.53;5046403;28;20083;-64
2023/04/27 08:08:57;;;;;;;7.63;2.83;;;;;;;9.61;88.71;102229.16;5015656;28;20032;-62
2023/04/27 08:11:23;;;;;;;10.98;3.03;;;;;;;9.63;89.95;102218.63;5017680;28;20120;-63
2023/04/27 08:13:48;;;;;;;6.97;2.92;;;;;;;9.76;90.10;102222.06;5024175;28;20112;-62
2023/04/27 08:16:13;;;;;;;5.30;3.08;;;;;;;9.67;90.03;102216.88;5017207;28;20025;-63
2023/04/27 08:18:38;;;;;;;7.68;3.60;;;;;;;10.03;89.37;102212.19;5018096;28;20121;-63
2023/04/27 08:21:04;;;;;;;3.85;2.67;;;;;;;10.10;88.64;102208.59;5020538;28;20045;-63
2023/04/27 08:23:31;;;;;;;6.93;3.17;;;;;;;10.16;88.66;102204.13;5028783;28;20033;-63
2023/04/27 08:25:57;;;;;;;4.72;3.00;;;;;;;10.25;87.35;102209.31;5028360;28;20060;-62
2023/04/27 08:28:22;;;;;;;3.97;2.65;;;;;;;10.60;87.08;102204.56;5027358;28;20033;-61
2023/04/27 08:30:47;;;;;;;14.05;4.80;;;;;;;10.99;85.30;102199.66;5027426;28;20031;-63
2023/04/27 08:33:13;;;;;;;5.50;2.55;;;;;;;10.90;84.49;102209.47;5019884;28;20116;-64
2023/04/27 08:35:38;;;;;;;8.20;2.70;;;;;;;10.61;82.01;102204.56;5016601;28;20054;-63
2023/04/27 08:38:03;;;;;;;6.15;2.60;;;;;;;10.83;82.60;102212.19;5015574;28;20064;-62
2023/04/27 08:40:29;;;;;;;10.60;2.75;;;;;;;10.56;82.01;102216.03;5018869;28;20083;-63
2023/04/27 08:42:56;;;;;;;9.27;3.10;;;;;;;10.54;82.29;102213.41;5023834;28;20036;-63
2023/04/27 08:45:23;;;;;;;9.55;2.78;;;;;;;10.53;83.45;102214.31;5026395;28;20102;-62
2023/04/27 08:47:48;;;;;;;4.40;2.75;;;;;;;10.83;82.88;102200.75;5021284;28;20037;-63
2023/04/27 08:50:14;;;;;;;3.63;2.58;;;;;;;11.12;82.12;102197.75;5018023;28;20017;-63
2023/04/27 08:52:39;;;;;;;6.65;2.75;;;;;;;11.34;81.41;102201.81;5022275;28;20438;-61
2023/04/27 08:55:07;;;;;;;5.55;2.78;;;;;;;10.91;79.66;102200.66;5032253;28;20454;-62
2023/04/27 08:57:32;;;;;;;7.10;2.80;;;;;;;10.72;78.39;102198.28;5020565;28;20088;-64
2023/04/27 08:59:59;;;;;;;8.68;2.97;;;;;;;10.76;80.71;102204.38;5020907;28;20014;-62
2023/04/27 09:02:28;;;;;;;7.45;2.63;;;;;;;10.73;82.19;102198.25;5022637;28;20103;-63
2023/04/27 09:04:53;;;;;;;6.13;2.47;;;;;;;11.06;82.51;102200.47;5022313;28;20076;-63
2023/04/27 09:07:19;;;;;;;9.65;2.92;;;;;;;10.89;79.68;102198.03;5020301;28;20460;-62
2023/04/27 09:09:45;;;;;;;5.93;3.10;;;;;;;11.05;79.05;102193.41;5016757;28;20034;-62
2023/04/27 09:12:20;;;;;;;7.97;2.80;;;;;;;11.29;79.29;102193.09;5023003;28;20029;-62
2023/04/27 09:14:56;;;;;;;4.13;2.47;;;;;;;11.24;81.09;102201.09;5013155;28;20602;-63
2023/04/27 09:17:26;;;;;;;7.68;2.80;;;;;;;11.66;78.99;102196.91;5008602;28;20117;-63
2023/04/27 09:19:52;;;;;;;6.35;3.00;;;;;;;11.88;75.28;102190.38;5007043;28;20080;-63
2023/04/27 09:22:17;;;;;;;4.60;2.55;;;;;;;11.46;73.40;102195.47;5007500;28;20026;-61
2023/04/27 09:24:51;;;;;;;4.72;2.33;;;;;;;11.84;72.63;102187.81;5007527;28;20333;-61
2023/04/27 09:27:20;;;;;;;4.78;2.72;;;;;;;11.66;71.71;102189.00;5006763;28;20026;-63
2023/04/27 09:29:46;;;;;;;6.80;2.58;;;;;;;11.36;69.19;102189.47;5007349;28;20030;-63
2023/04/27 09:32:19;;;;;;;6.35;2.90;;;;;;;11.57;70.91;102190.03;5032569;28;20108;-63
2023/04/27 09:34:45;;;;;;;4.53;2.63;;;;;;;11.95;72.60;102191.13;5027788;28;20033;-64
2023/04/27 09:37:10;;;;;;;8.13;2.53;;;;;;;11.79;70.58;102189.66;5033802;28;20037;-63
2023/04/27 09:39:37;;;;;;;7.90;2.90;;;;;;;11.87;70.92;102193.03;5047750;28;20033;-61
2023/04/27 09:42:03;;;;;;;3.88;3.10;;;;;;;12.07;70.77;102190.06;5046401;28;20025;-65
2023/04/27 09:44:30;;;;;;;6.07;3.10;;;;;;;12.16;69.39;102193.44;5048304;28;20032;-65
2023/04/27 09:46:57;;;;;;;9.98;3.40;;;;;;;11.92;70.50;102198.25;5048568;28;20460;-63
2023/04/27 09:49:24;;;;;;;5.07;2.95;;;;;;;12.17;70.34;102192.53;5044701;28;20029;-63
2023/04/27 09:51:49;;;;;;;6.10;3.03;;;;;;;12.26;69.95;102187.09;5028586;28;20100;-63
2023/04/27 09:54:15;;;;;;;6.00;3.20;;;;;;;12.04;70.91;102186.59;5027621;28;20108;-62
2023/04/27 09:56:51;;;;;;;7.05;3.20;;;;;;;12.17;68.98;102187.25;5025431;28;20522;-61
2023/04/27 09:59:39;;;;;;;5.13;2.65;;;;;;;11.92;66.26;102187.69;5025660;28;20101;-62
2023/04/27 10:02:05;;;;;;;3.40;2.97;;;;;;;12.34;66.23;102181.66;5006408;28;20113;-61
2023/04/27 10:04:49;;;;;;;5.00;2.90;;;;;;;12.54;67.28;102183.88;5005131;28;20101;-57
2023/04/27 10:07:16;;;;;;;5.32;2.70;;;;;;;12.68;65.18;102180.06;5007695;28;20680;-59
2023/04/27 10:09:45;;;;;;;4.68;2.70;;;;;;;12.20;62.32;102176.63;5008906;28;20046;-61
2023/04/27 10:12:16;;;;;;;;;;;;;;;11.95;63.28;102180.56;5031532;28;20032;-58
2023/04/27 10:14:52;;;;;;;3.15;2.58;;;;;;;12.61;65.56;102185.50;5034145;28;19913;-61
2023/04/27 10:17:18;;;;;;;3.38;2.90;;;;;;;12.49;65.36;102178.69;5027730;28;20387;-60
2023/04/27 10:19:54;;;;;;;6.07;2.80;;;;;;;12.74;63.76;102177.31;5025450;28;20424;-61
2023/04/27 10:22:20;;;;;;;9.23;3.25;;;;;;;12.80;62.29;102178.94;5016243;28;20025;-61
2023/04/27 10:24:48;;;;;;;7.50;3.22;;;;;;;12.85;66.03;102172.63;5027093;28;20116;-59
2023/04/27 10:27:18;;;;;;;9.32;3.47;;;;;;;12.77;63.07;102179.88;5024474;28;20036;-60
2023/04/27 10:29:45;;;;;;;12.20;3.78;;;;;;;12.96;62.14;102183.00;5025978;28;20131;-61
2023/04/27 10:32:23;;;;;;;6.57;3.22;;;;;;;12.97;61.65;102176.78;5026815;28;20032;-61
2023/04/27 10:34:50;;;;;;;4.85;3.20;;;;;;;12.55;60.52;102180.31;5027199;28;20057;-60
2023/04/27 10:37:18;;;;;;;4.55;3.28;;;;;;;12.02;59.68;102178.69;5027353;28;20057;-61
2023/04/27 10:39:44;;;;;;;5.82;3.05;;;;;;;11.97;58.82;102180.53;5027583;28;20464;-62
2023/04/27 10:42:10;;;;;;;5.95;3.25;;;;;;;12.41;59.48;102177.09;5025632;28;20034;-60
2023/04/27 10:44:37;;;;;;;6.57;3.30;;;;;;;12.55;59.42;102169.75;5026377;28;20034;-59
2023/04/27 10:47:20;;;;;;;6.65;3.00;;;;;;;12.84;62.47;102168.25;5026929;28;20022;-60
2023/04/27 10:49:46;;;;;;;5.80;3.13;;;;;;;12.96;62.75;102166.25;5026347;28;20022;-60
2023/04/27 10:52:11;;;;;;;5.85;3.75;;;;;;;13.33;61.07;102165.38;5022421;28;20033;-58
2023/04/27 10:54:38;;;;;;;7.47;3.25;;;;;;;13.52;61.83;102163.16;5018315;28;20073;-60
2023/04/27 10:57:05;;;;;;;5.22;3.47;;;;;;;13.09;58.17;102159.75;5021463;28;20532;-62
2023/04/27 10:59:31;;;;;;;6.82;3.67;;;;;;;12.77;55.40;102153.44;5018829;28;20104;-59
2023/04/27 11:01:56;;;;;;;6.63;3.38;;;;;;;13.11;58.55;102155.31;5028080;28;20171;-61
2023/04/27 11:04:22;;;;;;;8.45;3.40;;;;;;;13.54;60.12;102159.63;5026331;28;20072;-61
2023/04/27 11:06:47;;;;;;;10.77;3.60;;;;;;;13.32;60.34;102150.41;5027371;28;20432;-60
2023/04/27 11:09:13;;;;;;;9.20;4.18;;;;;;;13.52;60.11;102152.56;5026652;28;20183;-62
2023/04/27 11:11:43;;;;;;;7.22;3.80;;;;;;;13.61;58.78;102150.63;5011319;28;20022;-61
2023/04/27 11:14:08;;;;;;;6.00;3.80;;;;;;;14.08;58.68;102144.94;5026852;28;20017;-61
2023/04/27 11:16:34;;;;;;;4.72;3.65;;;;;;;14.30;58.79;102132.88;5025437;28;20368;-63